sensor_id;sensor_type;location;lat;lon;timestamp;pressure;altitude;pressure_sealevel;temperature;humidity
75543;BME280;64129;53.508;10.476;2023-04-24T00:01:11;99602.47;;;12.56;73.74
75543;BME280;64129;53.508;10.476;2023-04-24T00:03:39;99599.94;;;12.36;75.46
75543;BME280;64129;53.508;10.476;2023-04-24T00:06:05;99599.97;;;12.53;74.13
75543;BME280;64129;53.508;10.476;2023-04-24T00:08:35;99579.28;;;12.58;73.67
75543;BME280;64129;53.508;10.476;2023-04-24T00:11:02;99579.03;;;12.45;76.17
75543;BME280;64129;53.508;10.476;2023-04-24T00:13:29;99573.97;;;12.58;75.01
75543;BME280;64129;53.508;10.476;2023-04-24T00:15:56;99559.00;;;12.56;74.66
75543;BME280;64129;53.508;10.476;2023-04-24T00:18:22;99565.94;;;12.41;77.83
75543;BME280;64129;53.508;10.476;2023-04-24T00:20:49;99568.38;;;12.45;75.36
75543;BME280;64129;53.508;10.476;2023-04-24T00:23:15;99569.06;;;12.32;76.58
75543;BME280;64129;53.508;10.476;2023-04-24T00:25:42;99567.50;;;12.28;78.40
75543;BME280;64129;53.508;10.476;2023-04-24T00:28:08;99550.13;;;12.38;77.05
75543;BME280;64129;53.508;10.476;2023-04-24T00:30:35;99551.84;;;12.39;76.49
75543;BME280;64129;53.508;10.476;2023-04-24T00:33:02;99561.25;;;12.46;76.54
75543;BME280;64129;53.508;10.476;2023-04-24T00:35:29;99560.94;;;12.35;76.11
75543;BME280;64129;53.508;10.476;2023-04-24T00:37:55;99557.94;;;12.24;78.00
75543;BME280;64129;53.508;10.476;2023-04-24T00:40:22;99547.84;;;12.30;77.21
75543;BME280;64129;53.508;10.476;2023-04-24T00:42:48;99559.06;;;12.37;75.54
75543;BME280;64129;53.508;10.476;2023-04-24T00:45:15;99555.75;;;12.32;77.29
75543;BME280;64129;53.508;10.476;2023-04-24T00:47:42;99552.16;;;12.33;76.32
75543;BME280;64129;53.508;10.476;2023-04-24T00:50:09;99530.31;;;12.43;75.72
75543;BME280;64129;53.508;10.476;2023-04-24T00:52:37;99537.28;;;12.29;77.18
75543;BME280;64129;53.508;10.476;2023-04-24T00:55:07;99538.38;;;12.42;76.06
75543;BME280;64129;53.508;10.476;2023-04-24T00:57:34;99529.06;;;12.33;75.76
75543;BME280;64129;53.508;10.476;2023-04-24T01:00:02;99522.25;;;12.28;77.28
75543;BME280;64129;53.508;10.476;2023-04-24T01:02:29;99507.28;;;12.25;76.37
75543;BME280;64129;53.508;10.476;2023-04-24T01:04:56;99508.22;;;12.41;75.19
75543;BME280;64129;53.508;10.476;2023-04-24T01:07:24;99511.59;;;12.28;76.83
75543;BME280;64129;53.508;10.476;2023-04-24T01:09:51;99501.66;;;12.31;75.13
75543;BME280;64129;53.508;10.476;2023-04-24T01:12:19;99500.31;;;12.40;75.91
75543;BME280;64129;53.508;10.476;2023-04-24T01:14:45;99503.47;;;12.31;76.33
75543;BME280;64129;53.508;10.476;2023-04-24T01:17:14;99515.19;;;12.27;76.43
75543;BME280;64129;53.508;10.476;2023-04-24T01:19:41;99515.34;;;12.24;76.80
75543;BME280;64129;53.508;10.476;2023-04-24T01:22:12;99518.41;;;12.33;77.23
75543;BME280;64129;53.508;10.476;2023-04-24T01:24:40;99513.47;;;12.26;76.21
75543;BME280;64129;53.508;10.476;2023-04-24T01:27:08;99515.81;;;12.32;76.65
75543;BME280;64129;53.508;10.476;2023-04-24T01:29:35;99512.94;;;12.19;77.05
75543;BME280;64129;53.508;10.476;2023-04-24T01:32:03;99510.03;;;12.24;76.35
75543;BME280;64129;53.508;10.476;2023-04-24T01:34:30;99506.44;;;12.25;75.46
75543;BME280;64129;53.508;10.476;2023-04-24T01:36:57;99506.75;;;12.18;76.92
75543;BME280;64129;53.508;10.476;2023-04-24T01:39:24;99514.09;;;12.31;74.88
75543;BME280;64129;53.508;10.476;2023-04-24T01:41:52;99497.66;;;12.23;75.42
75543;BME280;64129;53.508;10.476;2023-04-24T01:44:20;99509.69;;;12.12;76.26
75543;BME280;64129;53.508;10.476;2023-04-24T01:46:47;99512.22;;;12.15;76.47
75543;BME280;64129;53.508;10.476;2023-04-24T01:49:13;99496.53;;;12.09;76.05
75543;BME280;64129;53.508;10.476;2023-04-24T01:51:40;99504.16;;;12.17;75.37
75543;BME280;64129;53.508;10.476;2023-04-24T01:54:06;99496.78;;;12.05;76.42
75543;BME280;64129;53.508;10.476;2023-04-24T01:56:34;99498.00;;;11.98;76.49
75543;BME280;64129;53.508;10.476;2023-04-24T01:59:04;99502.63;;;11.94;77.33
75543;BME280;64129;53.508;10.476;2023-04-24T02:01:35;99504.03;;;12.01;76.93
75543;BME280;64129;53.508;10.476;2023-04-24T02:04:06;99492.47;;;12.02;76.25
75543;BME280;64129;53.508;10.476;2023-04-24T02:06:34;99497.47;;;11.91;77.34
75543;BME280;64129;53.508;10.476;2023-04-24T02:09:01;99492.91;;;11.93;76.25
75543;BME280;64129;53.508;10.476;2023-04-24T02:11:29;99496.44;;;11.94;75.67
75543;BME280;64129;53.508;10.476;2023-04-24T02:13:56;99494.47;;;11.80;77.30
75543;BME280;64129;53.508;10.476;2023-04-24T02:16:22;99497.75;;;11.85;75.89
75543;BME280;64129;53.508;10.476;2023-04-24T02:18:49;99505.19;;;11.77;76.38
75543;BME280;64129;53.508;10.476;2023-04-24T02:21:16;99503.63;;;11.73;76.08
75543;BME280;64129;53.508;10.476;2023-04-24T02:23:42;99501.97;;;11.70;77.31
75543;BME280;64129;53.508;10.476;2023-04-24T02:26:11;99503.63;;;11.73;76.89
75543;BME280;64129;53.508;10.476;2023-04-24T02:28:38;99512.41;;;11.56;77.52
75543;BME280;64129;53.508;10.476;2023-04-24T02:31:04;99504.56;;;11.72;76.14
75543;BME280;64129;53.508;10.476;2023-04-24T02:33:32;99503.44;;;11.59;77.06
75543;BME280;64129;53.508;10.476;2023-04-24T02:35:58;99496.09;;;11.64;75.99
75543;BME280;64129;53.508;10.476;2023-04-24T02:38:25;99495.16;;;11.65;76.44
75543;BME280;64129;53.508;10.476;2023-04-24T02:40:52;99491.88;;;11.60;76.01
75543;BME280;64129;53.508;10.476;2023-04-24T02:43:18;99483.41;;;11.51;76.65
75543;BME280;64129;53.508;10.476;2023-04-24T02:45:45;99490.00;;;11.43;76.79
75543;BME280;64129;53.508;10.476;2023-04-24T02:48:11;99487.69;;;11.54;75.31
75543;BME280;64129;53.508;10.476;2023-04-24T02:50:38;99487.25;;;11.44;75.93
75543;BME280;64129;53.508;10.476;2023-04-24T02:53:05;99498.03;;;11.41;76.07
75543;BME280;64129;53.508;10.476;2023-04-24T02:55:31;99495.59;;;11.37;76.17
75543;BME280;64129;53.508;10.476;2023-04-24T02:57:58;99488.06;;;11.46;75.16
75543;BME280;64129;53.508;10.476;2023-04-24T03:00:24;99494.88;;;11.33;76.58
75543;BME280;64129;53.508;10.476;2023-04-24T03:02:51;99488.47;;;11.37;76.54
75543;BME280;64129;53.508;10.476;2023-04-24T03:05:17;99500.75;;;11.40;76.15
75543;BME280;64129;53.508;10.476;2023-04-24T03:07:44;99489.13;;;11.42;76.52
75543;BME280;64129;53.508;10.476;2023-04-24T03:10:11;99492.88;;;11.38;76.59
75543;BME280;64129;53.508;10.476;2023-04-24T03:12:38;99500.84;;;11.38;77.58
75543;BME280;64129;53.508;10.476;2023-04-24T03:15:05;99502.94;;;11.32;77.28
75543;BME280;64129;53.508;10.476;2023-04-24T03:17:31;99494.88;;;11.33;76.57
75543;BME280;64129;53.508;10.476;2023-04-24T03:19:58;99496.06;;;11.46;75.02
75543;BME280;64129;53.508;10.476;2023-04-24T03:22:25;99488.88;;;11.48;76.07
75543;BME280;64129;53.508;10.476;2023-04-24T03:24:52;99488.16;;;11.45;75.97
75543;BME280;64129;53.508;10.476;2023-04-24T03:27:19;99496.59;;;11.34;77.17
75543;BME280;64129;53.508;10.476;2023-04-24T03:30:06;99495.16;;;11.27;77.75
75543;BME280;64129;53.508;10.476;2023-04-24T03:32:41;99493.59;;;11.23;76.94
75543;BME280;64129;53.508;10.476;2023-04-24T03:35:10;99488.00;;;11.29;76.61
75543;BME280;64129;53.508;10.476;2023-04-24T03:37:38;99485.47;;;11.26;77.49
75543;BME280;64129;53.508;10.476;2023-04-24T03:40:27;99488.72;;;11.14;77.14
75543;BME280;64129;53.508;10.476;2023-04-24T03:42:56;99495.13;;;11.08;77.94
75543;BME280;64129;53.508;10.476;2023-04-24T03:45:23;99489.34;;;11.19;76.70
75543;BME280;64129;53.508;10.476;2023-04-24T03:47:51;99486.19;;;11.11;75.86
75543;BME280;64129;53.508;10.476;2023-04-24T03:50:17;99492.97;;;10.98;78.27
75543;BME280;64129;53.508;10.476;2023-04-24T03:52:44;99496.44;;;11.00;77.68
75543;BME280;64129;53.508;10.476;2023-04-24T03:55:19;99484.50;;;11.08;76.52
75543;BME280;64129;53.508;10.476;2023-04-24T03:57:47;99489.97;;;11.05;76.80
75543;BME280;64129;53.508;10.476;2023-04-24T04:00:20;99491.97;;;11.00;75.77
75543;BME280;64129;53.508;10.476;2023-04-24T04:02:54;99488.09;;;10.88;77.04
75543;BME280;64129;53.508;10.476;2023-04-24T04:05:21;99490.09;;;10.83;76.83
75543;BME280;64129;53.508;10.476;2023-04-24T04:07:48;99484.31;;;10.74;77.65
75543;BME280;64129;53.508;10.476;2023-04-24T04:10:14;99486.78;;;10.78;75.89
75543;BME280;64129;53.508;10.476;2023-04-24T04:12:41;99495.94;;;10.71;75.68
75543;BME280;64129;53.508;10.476;2023-04-24T04:15:07;99493.97;;;10.76;76.04
75543;BME280;64129;53.508;10.476;2023-04-24T04:17:34;99493.63;;;10.63;74.90
75543;BME280;64129;53.508;10.476;2023-04-24T04:20:04;99491.81;;;10.64;75.50
75543;BME280;64129;53.508;10.476;2023-04-24T04:22:36;99481.84;;;10.69;74.71
75543;BME280;64129;53.508;10.476;2023-04-24T04:25:06;99484.00;;;10.61;74.22
75543;BME280;64129;53.508;10.476;2023-04-24T04:27:34;99488.00;;;10.51;75.19
75543;BME280;64129;53.508;10.476;2023-04-24T04:30:07;99495.28;;;10.46;75.03
75543;BME280;64129;53.508;10.476;2023-04-24T04:32:45;99496.53;;;10.37;75.65
75543;BME280;64129;53.508;10.476;2023-04-24T04:35:12;99496.88;;;10.50;73.92
75543;BME280;64129;53.508;10.476;2023-04-24T04:37:39;99503.25;;;10.46;74.49
75543;BME280;64129;53.508;10.476;2023-04-24T04:40:24;99498.19;;;10.60;72.84
75543;BME280;64129;53.508;10.476;2023-04-24T04:42:57;99496.81;;;10.51;73.15
75543;BME280;64129;53.508;10.476;2023-04-24T04:45:27;99501.13;;;10.54;73.20
75543;BME280;64129;53.508;10.476;2023-04-24T04:48:14;99495.53;;;10.40;73.99
75543;BME280;64129;53.508;10.476;2023-04-24T04:50:44;99502.16;;;10.29;73.25
75543;BME280;64129;53.508;10.476;2023-04-24T04:53:11;99503.56;;;10.38;72.89
75543;BME280;64129;53.508;10.476;2023-04-24T04:55:38;99498.03;;;10.44;72.60
75543;BME280;64129;53.508;10.476;2023-04-24T04:58:09;99507.78;;;10.44;72.11
75543;BME280;64129;53.508;10.476;2023-04-24T05:00:36;99496.09;;;10.48;72.05
75543;BME280;64129;53.508;10.476;2023-04-24T05:03:12;99505.66;;;10.52;71.83
75543;BME280;64129;53.508;10.476;2023-04-24T05:05:44;99504.56;;;10.56;71.24
75543;BME280;64129;53.508;10.476;2023-04-24T05:08:13;99504.25;;;10.43;71.88
75543;BME280;64129;53.508;10.476;2023-04-24T05:10:45;99490.44;;;10.55;71.62
75543;BME280;64129;53.508;10.476;2023-04-24T05:13:12;99496.75;;;10.53;71.32
75543;BME280;64129;53.508;10.476;2023-04-24T05:15:39;99492.31;;;10.53;71.73
75543;BME280;64129;53.508;10.476;2023-04-24T05:18:06;99493.91;;;10.57;71.07
75543;BME280;64129;53.508;10.476;2023-04-24T05:20:33;99496.88;;;10.50;71.69
75543;BME280;64129;53.508;10.476;2023-04-24T05:22:59;99503.66;;;10.57;70.84
75543;BME280;64129;53.508;10.476;2023-04-24T05:25:27;99498.28;;;10.58;71.03
75543;BME280;64129;53.508;10.476;2023-04-24T05:28:03;99487.59;;;10.60;71.43
75543;BME280;64129;53.508;10.476;2023-04-24T05:30:29;99487.03;;;10.72;70.19
75543;BME280;64129;53.508;10.476;2023-04-24T05:32:56;99492.75;;;10.63;70.86
75543;BME280;64129;53.508;10.476;2023-04-24T05:35:23;99500.72;;;10.63;70.96
75543;BME280;64129;53.508;10.476;2023-04-24T05:37:49;99498.06;;;10.63;70.59
75543;BME280;64129;53.508;10.476;2023-04-24T05:40:16;99506.69;;;10.68;70.98
75543;BME280;64129;53.508;10.476;2023-04-24T05:42:43;99499.72;;;10.66;70.66
75543;BME280;64129;53.508;10.476;2023-04-24T05:45:10;99504.69;;;10.73;70.60
75543;BME280;64129;53.508;10.476;2023-04-24T05:47:43;99504.63;;;10.75;70.49
75543;BME280;64129;53.508;10.476;2023-04-24T05:50:10;99500.78;;;10.82;69.95
75543;BME280;64129;53.508;10.476;2023-04-24T05:52:37;99509.47;;;10.85;70.65
75543;BME280;64129;53.508;10.476;2023-04-24T05:55:12;99514.22;;;10.98;69.83
75543;BME280;64129;53.508;10.476;2023-04-24T05:57:41;99510.66;;;10.99;70.33
75543;BME280;64129;53.508;10.476;2023-04-24T06:00:08;99511.72;;;10.94;70.13
75543;BME280;64129;53.508;10.476;2023-04-24T06:02:47;99510.44;;;11.03;69.21
75543;BME280;64129;53.508;10.476;2023-04-24T06:05:14;99516.75;;;11.01;69.32
75543;BME280;64129;53.508;10.476;2023-04-24T06:07:41;99510.97;;;11.11;69.22
75543;BME280;64129;53.508;10.476;2023-04-24T06:10:08;99509.19;;;11.12;68.67
75543;BME280;64129;53.508;10.476;2023-04-24T06:12:41;99503.78;;;11.13;69.24
75543;BME280;64129;53.508;10.476;2023-04-24T06:15:14;99515.00;;;11.20;69.01
75543;BME280;64129;53.508;10.476;2023-04-24T06:17:57;99511.75;;;11.32;68.92
75543;BME280;64129;53.508;10.476;2023-04-24T06:20:25;99512.69;;;11.31;68.76
75543;BME280;64129;53.508;10.476;2023-04-24T06:22:51;99514.28;;;11.35;68.32
75543;BME280;64129;53.508;10.476;2023-04-24T06:25:18;99518.44;;;11.41;67.84
75543;BME280;64129;53.508;10.476;2023-04-24T06:27:45;99509.84;;;11.54;68.25
75543;BME280;64129;53.508;10.476;2023-04-24T06:30:12;99525.13;;;11.68;68.50
75543;BME280;64129;53.508;10.476;2023-04-24T06:32:39;99525.78;;;11.54;67.22
75543;BME280;64129;53.508;10.476;2023-04-24T06:35:06;99522.38;;;11.70;67.54
75543;BME280;64129;53.508;10.476;2023-04-24T06:37:34;99521.59;;;11.68;66.78
75543;BME280;64129;53.508;10.476;2023-04-24T06:40:00;99525.63;;;11.76;66.51
75543;BME280;64129;53.508;10.476;2023-04-24T06:42:27;99517.38;;;11.64;66.88
75543;BME280;64129;53.508;10.476;2023-04-24T06:44:54;99516.66;;;11.79;65.73
75543;BME280;64129;53.508;10.476;2023-04-24T06:47:21;99522.66;;;12.01;66.22
75543;BME280;64129;53.508;10.476;2023-04-24T06:49:47;99521.63;;;11.86;65.90
75543;BME280;64129;53.508;10.476;2023-04-24T06:52:14;99510.22;;;12.02;65.90
75543;BME280;64129;53.508;10.476;2023-04-24T06:54:41;99521.56;;;12.05;65.71
75543;BME280;64129;53.508;10.476;2023-04-24T06:57:08;99519.41;;;12.13;65.53
75543;BME280;64129;53.508;10.476;2023-04-24T06:59:34;99509.97;;;12.25;65.06
75543;BME280;64129;53.508;10.476;2023-04-24T07:02:01;99514.41;;;12.42;64.31
75543;BME280;64129;53.508;10.476;2023-04-24T07:04:27;99511.91;;;12.39;63.70
75543;BME280;64129;53.508;10.476;2023-04-24T07:06:54;99516.16;;;12.60;63.84
75543;BME280;64129;53.508;10.476;2023-04-24T07:09:22;99517.63;;;12.66;62.86
75543;BME280;64129;53.508;10.476;2023-04-24T07:11:50;99499.75;;;12.68;63.81
75543;BME280;64129;53.508;10.476;2023-04-24T07:14:17;99507.09;;;12.97;63.24
75543;BME280;64129;53.508;10.476;2023-04-24T07:16:44;99518.00;;;12.93;63.55
75543;BME280;64129;53.508;10.476;2023-04-24T07:19:12;99517.84;;;12.78;61.99
75543;BME280;64129;53.508;10.476;2023-04-24T07:21:39;99513.63;;;12.92;62.47
75543;BME280;64129;53.508;10.476;2023-04-24T07:24:06;99522.50;;;13.08;62.25
75543;BME280;64129;53.508;10.476;2023-04-24T07:26:37;99512.25;;;13.00;62.42
75543;BME280;64129;53.508;10.476;2023-04-24T07:29:05;99522.94;;;13.16;60.50
75543;BME280;64129;53.508;10.476;2023-04-24T07:31:32;99525.78;;;13.30;60.69
75543;BME280;64129;53.508;10.476;2023-04-24T07:33:59;99521.22;;;13.15;60.27
75543;BME280;64129;53.508;10.476;2023-04-24T07:36:25;99512.38;;;13.48;62.55
75543;BME280;64129;53.508;10.476;2023-04-24T07:38:53;99514.81;;;13.68;60.23
75543;BME280;64129;53.508;10.476;2023-04-24T07:41:20;99512.72;;;13.41;59.28
75543;BME280;64129;53.508;10.476;2023-04-24T07:43:48;99516.19;;;13.59;58.73
75543;BME280;64129;53.508;10.476;2023-04-24T07:46:14;99513.75;;;14.02;58.94
75543;BME280;64129;53.508;10.476;2023-04-24T07:48:41;99525.13;;;14.05;59.83
75543;BME280;64129;53.508;10.476;2023-04-24T07:51:07;99523.00;;;13.65;56.83
75543;BME280;64129;53.508;10.476;2023-04-24T07:53:36;99521.84;;;14.00;57.43
75543;BME280;64129;53.508;10.476;2023-04-24T07:56:02;99530.31;;;13.93;57.02
75543;BME280;64129;53.508;10.476;2023-04-24T07:58:29;99527.63;;;13.93;56.26
75543;BME280;64129;53.508;10.476;2023-04-24T08:00:55;99515.91;;;14.41;55.75
75543;BME280;64129;53.508;10.476;2023-04-24T08:03:22;99521.41;;;14.24;55.54
75543;BME280;64129;53.508;10.476;2023-04-24T08:05:49;99531.50;;;13.71;57.27
75543;BME280;64129;53.508;10.476;2023-04-24T08:08:17;99528.50;;;13.62;56.61
75543;BME280;64129;53.508;10.476;2023-04-24T08:10:44;99531.66;;;14.16;55.35
75543;BME280;64129;53.508;10.476;2023-04-24T08:13:10;99521.94;;;14.60;56.61
75543;BME280;64129;53.508;10.476;2023-04-24T08:15:37;99520.06;;;14.47;55.69
75543;BME280;64129;53.508;10.476;2023-04-24T08:18:04;99536.59;;;14.53;53.62
75543;BME280;64129;53.508;10.476;2023-04-24T08:20:31;99543.84;;;14.51;55.71
75543;BME280;64129;53.508;10.476;2023-04-24T08:22:57;99534.56;;;14.73;54.73
75543;BME280;64129;53.508;10.476;2023-04-24T08:25:24;99538.59;;;14.34;55.61
75543;BME280;64129;53.508;10.476;2023-04-24T08:27:51;99543.63;;;14.70;56.13
75543;BME280;64129;53.508;10.476;2023-04-24T08:30:18;99542.47;;;14.44;54.85
75543;BME280;64129;53.508;10.476;2023-04-24T08:32:44;99542.75;;;14.70;55.87
75543;BME280;64129;53.508;10.476;2023-04-24T08:35:11;99557.97;;;14.83;54.57
75543;BME280;64129;53.508;10.476;2023-04-24T08:37:37;99546.38;;;14.69;55.08
75543;BME280;64129;53.508;10.476;2023-04-24T08:40:08;99562.81;;;14.31;56.40
75543;BME280;64129;53.508;10.476;2023-04-24T08:42:36;99561.03;;;14.16;56.17
75543;BME280;64129;53.508;10.476;2023-04-24T08:45:03;99550.56;;;14.58;54.74
75543;BME280;64129;53.508;10.476;2023-04-24T08:47:30;99563.84;;;15.18;55.41
75543;BME280;64129;53.508;10.476;2023-04-24T08:49:58;99557.16;;;14.97;54.33
75543;BME280;64129;53.508;10.476;2023-04-24T08:52:25;99554.25;;;14.86;54.89
75543;BME280;64129;53.508;10.476;2023-04-24T08:54:54;99546.38;;;14.69;55.10
75543;BME280;64129;53.508;10.476;2023-04-24T08:57:21;99548.47;;;14.93;53.73
75543;BME280;64129;53.508;10.476;2023-04-24T08:59:48;99546.66;;;14.94;52.20
75543;BME280;64129;53.508;10.476;2023-04-24T09:02:15;99549.84;;;15.29;51.95
75543;BME280;64129;53.508;10.476;2023-04-24T09:04:43;99575.22;;;15.50;51.83
75543;BME280;64129;53.508;10.476;2023-04-24T09:07:12;99557.56;;;15.48;51.30
75543;BME280;64129;53.508;10.476;2023-04-24T09:09:38;99558.13;;;15.39;53.42
75543;BME280;64129;53.508;10.476;2023-04-24T09:12:06;99570.09;;;15.33;53.26
75543;BME280;64129;53.508;10.476;2023-04-24T09:14:33;99560.50;;;15.15;53.24
75543;BME280;64129;53.508;10.476;2023-04-24T09:17:00;99568.81;;;14.96;53.92
75543;BME280;64129;53.508;10.476;2023-04-24T09:19:26;99566.72;;;15.15;54.34
75543;BME280;64129;53.508;10.476;2023-04-24T09:21:53;99564.84;;;15.74;53.03
75543;BME280;64129;53.508;10.476;2023-04-24T09:24:21;99555.34;;;15.97;52.14
75543;BME280;64129;53.508;10.476;2023-04-24T09:26:56;99559.66;;;15.85;51.84
75543;BME280;64129;53.508;10.476;2023-04-24T09:29:25;99562.31;;;16.00;52.38
75543;BME280;64129;53.508;10.476;2023-04-24T09:31:51;99561.94;;;15.91;53.09
75543;BME280;64129;53.508;10.476;2023-04-24T09:34:25;99571.59;;;15.23;54.01
75543;BME280;64129;53.508;10.476;2023-04-24T09:36:53;99569.66;;;15.11;53.25
75543;BME280;64129;53.508;10.476;2023-04-24T09:39:20;99580.22;;;14.84;53.46
75543;BME280;64129;53.508;10.476;2023-04-24T09:41:56;99578.88;;;15.35;53.43
75543;BME280;64129;53.508;10.476;2023-04-24T09:44:27;99582.94;;;14.68;54.47
75543;BME280;64129;53.508;10.476;2023-04-24T09:46:56;99579.03;;;14.74;54.76
75543;BME280;64129;53.508;10.476;2023-04-24T09:49:30;99598.66;;;14.58;53.02
75543;BME280;64129;53.508;10.476;2023-04-24T09:52:09;99583.16;;;14.49;54.00
75543;BME280;64129;53.508;10.476;2023-04-24T09:54:36;99588.22;;;14.84;52.28
75543;BME280;64129;53.508;10.476;2023-04-24T09:57:04;99584.38;;;14.74;52.65
75543;BME280;64129;53.508;10.476;2023-04-24T09:59:31;99587.47;;;14.82;52.72
75543;BME280;64129;53.508;10.476;2023-04-24T10:01:59;99598.41;;;14.47;53.43
75543;BME280;64129;53.508;10.476;2023-04-24T10:04:27;99594.59;;;14.97;54.63
75543;BME280;64129;53.508;10.476;2023-04-24T10:06:56;99597.25;;;14.97;52.27
75543;BME280;64129;53.508;10.476;2023-04-24T10:09:25;99595.41;;;15.42;52.00
75543;BME280;64129;53.508;10.476;2023-04-24T10:11:52;99588.53;;;15.38;53.32
75543;BME280;64129;53.508;10.476;2023-04-24T10:14:24;99596.38;;;15.26;51.48
75543;BME280;64129;53.508;10.476;2023-04-24T10:16:53;99596.50;;;14.95;52.60
75543;BME280;64129;53.508;10.476;2023-04-24T10:19:20;99600.22;;;14.62;52.42
75543;BME280;64129;53.508;10.476;2023-04-24T10:21:47;99602.13;;;14.29;53.41
75543;BME280;64129;53.508;10.476;2023-04-24T10:24:18;99586.84;;;14.92;51.59
75543;BME280;64129;53.508;10.476;2023-04-24T10:26:47;99600.94;;;15.39;51.37
75543;BME280;64129;53.508;10.476;2023-04-24T10:29:16;99593.13;;;15.78;51.38
75543;BME280;64129;53.508;10.476;2023-04-24T10:31:43;99596.16;;;15.44;51.90
75543;BME280;64129;53.508;10.476;2023-04-24T10:34:15;99601.31;;;15.47;51.66
75543;BME280;64129;53.508;10.476;2023-04-24T10:36:51;99596.25;;;15.28;50.56
75543;BME280;64129;53.508;10.476;2023-04-24T10:39:18;99590.22;;;15.96;49.39
75543;BME280;64129;53.508;10.476;2023-04-24T10:41:45;99586.38;;;16.14;48.24
75543;BME280;64129;53.508;10.476;2023-04-24T10:44:15;99596.84;;;16.85;48.46
75543;BME280;64129;53.508;10.476;2023-04-24T10:46:46;99586.41;;;16.68;48.23
75543;BME280;64129;53.508;10.476;2023-04-24T10:49:28;99605.16;;;16.00;49.43
75543;BME280;64129;53.508;10.476;2023-04-24T10:52:00;99596.38;;;16.25;48.75
75543;BME280;64129;53.508;10.476;2023-04-24T10:54:29;99595.34;;;16.81;50.66
75543;BME280;64129;53.508;10.476;2023-04-24T10:59:44;99600.19;;;16.62;49.67
75543;BME280;64129;53.508;10.476;2023-04-24T11:02:14;99600.19;;;16.62;47.62
75543;BME280;64129;53.508;10.476;2023-04-24T11:04:42;99604.84;;;16.45;49.14
75543;BME280;64129;53.508;10.476;2023-04-24T11:07:12;99610.31;;;15.88;48.36
75543;BME280;64129;53.508;10.476;2023-04-24T11:09:38;99604.78;;;15.35;49.08
75543;BME280;64129;53.508;10.476;2023-04-24T11:12:10;99600.28;;;14.91;50.80
75543;BME280;64129;53.508;10.476;2023-04-24T11:17:33;99610.50;;;15.28;50.90
75543;BME280;64129;53.508;10.476;2023-04-24T11:20:01;99610.94;;;15.07;52.16
75543;BME280;64129;53.508;10.476;2023-04-24T11:22:33;99606.88;;;15.86;50.21
75543;BME280;64129;53.508;10.476;2023-04-24T11:25:02;99596.88;;;16.31;49.28
75543;BME280;64129;53.508;10.476;2023-04-24T11:27:38;99589.59;;;16.33;47.54
75543;BME280;64129;53.508;10.476;2023-04-24T11:30:06;99588.66;;;16.20;48.52
75543;BME280;64129;53.508;10.476;2023-04-24T11:35:06;99592.97;;;15.67;48.31
75543;BME280;64129;53.508;10.476;2023-04-24T11:37:43;99593.91;;;15.66;47.25
75543;BME280;64129;53.508;10.476;2023-04-24T11:40:12;99588.91;;;16.03;47.53
75543;BME280;64129;53.508;10.476;2023-04-24T11:42:42;99592.16;;;15.37;49.13
75543;BME280;64129;53.508;10.476;2023-04-24T11:45:10;99601.72;;;15.55;48.89
75543;BME280;64129;53.508;10.476;2023-04-24T11:47:37;99610.25;;;15.03;49.19
75543;BME280;64129;53.508;10.476;2023-04-24T11:50:06;99611.72;;;15.23;49.14
75543;BME280;64129;53.508;10.476;2023-04-24T11:52:36;99602.19;;;14.89;50.26
75543;BME280;64129;53.508;10.476;2023-04-24T11:55:04;99617.31;;;14.74;50.44
75543;BME280;64129;53.508;10.476;2023-04-24T11:57:30;99614.34;;;14.64;50.07
75543;BME280;64129;53.508;10.476;2023-04-24T12:00:01;99622.09;;;14.53;49.93
75543;BME280;64129;53.508;10.476;2023-04-24T12:02:37;99619.25;;;14.56;50.18
75543;BME280;64129;53.508;10.476;2023-04-24T12:05:05;99612.19;;;14.55;49.22
75543;BME280;64129;53.508;10.476;2023-04-24T12:07:40;99609.97;;;14.78;48.68
75543;BME280;64129;53.508;10.476;2023-04-24T12:10:09;99609.97;;;14.78;49.35
75543;BME280;64129;53.508;10.476;2023-04-24T12:12:35;99599.22;;;15.38;49.28
75543;BME280;64129;53.508;10.476;2023-04-24T12:15:07;99604.00;;;15.33;48.86
75543;BME280;64129;53.508;10.476;2023-04-24T12:17:34;99611.41;;;15.13;49.24
75543;BME280;64129;53.508;10.476;2023-04-24T12:20:04;99603.09;;;15.18;48.35
75543;BME280;64129;53.508;10.476;2023-04-24T12:25:21;99594.75;;;17.15;46.18
75543;BME280;64129;53.508;10.476;2023-04-24T12:28:08;99586.00;;;16.74;44.39
75543;BME280;64129;53.508;10.476;2023-04-24T12:30:46;99574.69;;;17.34;44.39
75543;BME280;64129;53.508;10.476;2023-04-24T12:33:18;99595.50;;;17.18;44.04
75543;BME280;64129;53.508;10.476;2023-04-24T12:35:48;99587.53;;;16.10;44.86
75543;BME280;64129;53.508;10.476;2023-04-24T12:38:23;99583.47;;;15.76;45.22
75543;BME280;64129;53.508;10.476;2023-04-24T12:41:06;99585.06;;;15.50;45.79
75543;BME280;64129;53.508;10.476;2023-04-24T12:43:33;99593.31;;;16.97;44.57
75543;BME280;64129;53.508;10.476;2023-04-24T12:45:59;99583.28;;;16.34;44.15
75543;BME280;64129;53.508;10.476;2023-04-24T12:48:27;99592.00;;;16.50;43.87
75543;BME280;64129;53.508;10.476;2023-04-24T12:50:54;99590.63;;;15.89;44.59
75543;BME280;64129;53.508;10.476;2023-04-24T12:53:21;99589.97;;;16.27;44.53
75543;BME280;64129;53.508;10.476;2023-04-24T12:55:48;99591.81;;;16.80;44.73
75543;BME280;64129;53.508;10.476;2023-04-24T12:58:19;99591.03;;;16.25;43.96
75543;BME280;64129;53.508;10.476;2023-04-24T13:00:47;99598.84;;;15.86;45.35
75543;BME280;64129;53.508;10.476;2023-04-24T13:03:14;99602.59;;;16.25;45.41
75543;BME280;64129;53.508;10.476;2023-04-24T13:05:42;99613.13;;;16.55;46.02
75543;BME280;64129;53.508;10.476;2023-04-24T13:08:09;99600.59;;;15.73;46.51